sensor_id;sensor_type;location;lat;lon;timestamp;P1;durP1;ratioP1;P2;durP2;ratioP2
7515;SDS011;3799;47.184;8.538;2023-02-11T00:01:31;11.02;;;3.78;;
7515;SDS011;3799;47.184;8.538;2023-02-11T00:04:00;9.10;;;4.15;;
7515;SDS011;3799;47.184;8.538;2023-02-11T00:06:29;11.00;;;4.20;;
7515;SDS011;3799;47.184;8.538;2023-02-11T00:08:57;9.45;;;4.03;;
7515;SDS011;3799;47.184;8.538;2023-02-11T00:11:25;9.18;;;3.60;;
7515;SDS011;3799;47.184;8.538;2023-02-11T00:13:57;10.32;;;3.78;;
7515;SDS011;3799;47.184;8.538;2023-02-11T00:16:28;10.98;;;3.85;;
7515;SDS011;3799;47.184;8.538;2023-02-11T00:19:00;9.60;;;4.28;;
7515;SDS011;3799;47.184;8.538;2023-02-11T00:21:29;9.40;;;4.07;;
7515;SDS011;3799;47.184;8.538;2023-02-11T00:24:00;8.32;;;4.25;;
7515;SDS011;3799;47.184;8.538;2023-02-11T00:26:28;11.85;;;4.90;;
7515;SDS011;3799;47.184;8.538;2023-02-11T00:28:58;9.95;;;4.03;;
7515;SDS011;3799;47.184;8.538;2023-02-11T00:31:27;9.77;;;3.90;;
7515;SDS011;3799;47.184;8.538;2023-02-11T00:33:55;8.23;;;4.68;;
7515;SDS011;3799;47.184;8.538;2023-02-11T00:36:24;11.43;;;4.15;;
7515;SDS011;3799;47.184;8.538;2023-02-11T00:38:53;10.68;;;3.45;;
7515;SDS011;3799;47.184;8.538;2023-02-11T00:41:21;9.05;;;3.38;;
7515;SDS011;3799;47.184;8.538;2023-02-11T00:43:49;9.23;;;3.47;;
7515;SDS011;3799;47.184;8.538;2023-02-11T00:46:17;8.20;;;3.25;;
7515;SDS011;3799;47.184;8.538;2023-02-11T00:48:45;8.32;;;3.58;;
7515;SDS011;3799;47.184;8.538;2023-02-11T00:51:14;7.65;;;3.65;;
7515;SDS011;3799;47.184;8.538;2023-02-11T00:53:44;6.88;;;3.72;;
7515;SDS011;3799;47.184;8.538;2023-02-11T00:56:12;8.60;;;3.25;;
7515;SDS011;3799;47.184;8.538;2023-02-11T00:58:40;7.55;;;3.75;;
7515;SDS011;3799;47.184;8.538;2023-02-11T01:01:07;8.38;;;3.13;;
7515;SDS011;3799;47.184;8.538;2023-02-11T01:03:35;9.13;;;3.60;;
7515;SDS011;3799;47.184;8.538;2023-02-11T01:06:02;7.35;;;3.28;;
7515;SDS011;3799;47.184;8.538;2023-02-11T01:08:30;7.15;;;2.88;;
7515;SDS011;3799;47.184;8.538;2023-02-11T01:11:01;9.48;;;2.55;;
7515;SDS011;3799;47.184;8.538;2023-02-11T01:13:31;7.45;;;2.53;;
7515;SDS011;3799;47.184;8.538;2023-02-11T01:15:59;7.88;;;3.03;;
7515;SDS011;3799;47.184;8.538;2023-02-11T01:18:27;8.25;;;3.42;;
7515;SDS011;3799;47.184;8.538;2023-02-11T01:20:54;5.80;;;2.70;;
7515;SDS011;3799;47.184;8.538;2023-02-11T01:23:22;6.03;;;2.75;;
7515;SDS011;3799;47.184;8.538;2023-02-11T01:25:52;8.68;;;3.40;;
7515;SDS011;3799;47.184;8.538;2023-02-11T01:28:21;8.23;;;2.90;;
7515;SDS011;3799;47.184;8.538;2023-02-11T01:30:50;7.53;;;2.60;;
7515;SDS011;3799;47.184;8.538;2023-02-11T01:33:26;4.72;;;1.92;;
7515;SDS011;3799;47.184;8.538;2023-02-11T01:35:59;6.40;;;3.17;;
7515;SDS011;3799;47.184;8.538;2023-02-11T01:38:29;6.55;;;3.08;;
7515;SDS011;3799;47.184;8.538;2023-02-11T01:41:02;7.05;;;3.00;;
7515;SDS011;3799;47.184;8.538;2023-02-11T01:43:39;7.53;;;3.60;;
7515;SDS011;3799;47.184;8.538;2023-02-11T01:46:12;6.05;;;3.38;;
7515;SDS011;3799;47.184;8.538;2023-02-11T01:49:05;8.10;;;3.33;;
7515;SDS011;3799;47.184;8.538;2023-02-11T01:54:25;5.95;;;3.05;;
7515;SDS011;3799;47.184;8.538;2023-02-11T01:57:15;9.07;;;3.00;;
7515;SDS011;3799;47.184;8.538;2023-02-11T02:00:12;7.60;;;3.42;;
7515;SDS011;3799;47.184;8.538;2023-02-11T02:05:36;6.15;;;3.00;;
7515;SDS011;3799;47.184;8.538;2023-02-11T02:08:57;7.20;;;2.78;;
7515;SDS011;3799;47.184;8.538;2023-02-11T02:11:27;7.65;;;3.30;;
7515;SDS011;3799;47.184;8.538;2023-02-11T02:13:54;7.72;;;3.20;;
7515;SDS011;3799;47.184;8.538;2023-02-11T02:16:21;8.98;;;3.45;;
7515;SDS011;3799;47.184;8.538;2023-02-11T02:24:30;6.03;;;2.40;;
7515;SDS011;3799;47.184;8.538;2023-02-11T02:41:00;6.97;;;2.42;;
7515;SDS011;3799;47.184;8.538;2023-02-11T02:43:32;8.13;;;3.20;;
7515;SDS011;3799;47.184;8.538;2023-02-11T02:48:50;7.63;;;3.75;;
7515;SDS011;3799;47.184;8.538;2023-02-11T02:51:24;9.13;;;3.10;;
7515;SDS011;3799;47.184;8.538;2023-02-11T02:54:24;8.57;;;3.95;;
7515;SDS011;3799;47.184;8.538;2023-02-11T03:00:04;7.72;;;3.67;;
7515;SDS011;3799;47.184;8.538;2023-02-11T03:08:15;8.07;;;2.92;;
7515;SDS011;3799;47.184;8.538;2023-02-11T03:10:51;8.95;;;3.58;;
7515;SDS011;3799;47.184;8.538;2023-02-11T03:13:21;7.82;;;3.15;;
7515;SDS011;3799;47.184;8.538;2023-02-11T03:15:54;8.05;;;3.25;;
7515;SDS011;3799;47.184;8.538;2023-02-11T03:18:24;5.97;;;3.20;;
7515;SDS011;3799;47.184;8.538;2023-02-11T03:20:54;8.32;;;3.47;;
7515;SDS011;3799;47.184;8.538;2023-02-11T03:26:52;7.82;;;3.15;;
7515;SDS011;3799;47.184;8.538;2023-02-11T03:34:49;7.55;;;2.78;;
7515;SDS011;3799;47.184;8.538;2023-02-11T03:37:28;7.47;;;2.78;;
7515;SDS011;3799;47.184;8.538;2023-02-11T03:40:15;6.43;;;3.20;;
7515;SDS011;3799;47.184;8.538;2023-02-11T03:42:50;8.77;;;3.58;;
7515;SDS011;3799;47.184;8.538;2023-02-11T03:45:31;8.52;;;3.05;;
7515;SDS011;3799;47.184;8.538;2023-02-11T03:48:05;9.07;;;3.50;;
7515;SDS011;3799;47.184;8.538;2023-02-11T03:50:41;5.38;;;2.60;;
7515;SDS011;3799;47.184;8.538;2023-02-11T03:53:11;6.95;;;2.90;;
7515;SDS011;3799;47.184;8.538;2023-02-11T03:55:40;9.13;;;3.25;;
7515;SDS011;3799;47.184;8.538;2023-02-11T03:58:09;6.30;;;2.80;;
7515;SDS011;3799;47.184;8.538;2023-02-11T04:00:38;8.57;;;3.47;;
7515;SDS011;3799;47.184;8.538;2023-02-11T04:03:07;6.32;;;2.83;;
7515;SDS011;3799;47.184;8.538;2023-02-11T04:05:36;6.50;;;2.60;;
7515;SDS011;3799;47.184;8.538;2023-02-11T04:08:07;9.45;;;3.13;;
7515;SDS011;3799;47.184;8.538;2023-02-11T04:10:34;5.85;;;2.60;;
7515;SDS011;3799;47.184;8.538;2023-02-11T04:13:01;7.40;;;3.13;;
7515;SDS011;3799;47.184;8.538;2023-02-11T04:15:29;7.50;;;3.13;;
7515;SDS011;3799;47.184;8.538;2023-02-11T04:17:56;9.13;;;3.20;;
7515;SDS011;3799;47.184;8.538;2023-02-11T04:20:24;7.13;;;2.85;;
7515;SDS011;3799;47.184;8.538;2023-02-11T04:22:56;6.15;;;2.80;;
7515;SDS011;3799;47.184;8.538;2023-02-11T04:25:38;6.72;;;3.13;;
7515;SDS011;3799;47.184;8.538;2023-02-11T04:28:05;7.45;;;3.40;;
7515;SDS011;3799;47.184;8.538;2023-02-11T04:30:34;6.55;;;2.72;;
7515;SDS011;3799;47.184;8.538;2023-02-11T04:33:02;9.07;;;3.25;;
7515;SDS011;3799;47.184;8.538;2023-02-11T04:35:32;8.43;;;3.10;;
7515;SDS011;3799;47.184;8.538;2023-02-11T04:37:59;9.35;;;4.10;;
7515;SDS011;3799;47.184;8.538;2023-02-11T04:40:26;9.15;;;3.95;;
7515;SDS011;3799;47.184;8.538;2023-02-11T04:42:54;9.95;;;3.92;;
7515;SDS011;3799;47.184;8.538;2023-02-11T04:45:21;6.50;;;3.30;;
7515;SDS011;3799;47.184;8.538;2023-02-11T04:48:17;8.95;;;3.85;;
7515;SDS011;3799;47.184;8.538;2023-02-11T04:50:44;7.38;;;3.00;;
7515;SDS011;3799;47.184;8.538;2023-02-11T04:53:11;8.57;;;3.92;;
7515;SDS011;3799;47.184;8.538;2023-02-11T04:55:39;9.80;;;4.00;;
7515;SDS011;3799;47.184;8.538;2023-02-11T04:58:06;10.20;;;3.70;;
7515;SDS011;3799;47.184;8.538;2023-02-11T05:00:34;6.32;;;2.75;;
7515;SDS011;3799;47.184;8.538;2023-02-11T05:03:15;6.20;;;3.15;;
7515;SDS011;3799;47.184;8.538;2023-02-11T05:05:42;5.57;;;2.65;;
7515;SDS011;3799;47.184;8.538;2023-02-11T05:08:10;7.95;;;3.10;;
7515;SDS011;3799;47.184;8.538;2023-02-11T05:10:37;7.07;;;2.63;;
7515;SDS011;3799;47.184;8.538;2023-02-11T05:13:05;10.85;;;3.55;;
7515;SDS011;3799;47.184;8.538;2023-02-11T05:15:32;6.00;;;2.42;;
7515;SDS011;3799;47.184;8.538;2023-02-11T05:18:04;6.03;;;2.78;;
7515;SDS011;3799;47.184;8.538;2023-02-11T05:20:31;5.40;;;2.47;;
7515;SDS011;3799;47.184;8.538;2023-02-11T05:23:00;6.57;;;2.55;;
7515;SDS011;3799;47.184;8.538;2023-02-11T05:25:27;6.05;;;2.78;;
7515;SDS011;3799;47.184;8.538;2023-02-11T05:27:54;8.48;;;3.92;;
7515;SDS011;3799;47.184;8.538;2023-02-11T05:30:22;7.10;;;3.30;;
7515;SDS011;3799;47.184;8.538;2023-02-11T05:32:49;8.15;;;3.80;;
7515;SDS011;3799;47.184;8.538;2023-02-11T05:35:17;8.13;;;3.50;;
7515;SDS011;3799;47.184;8.538;2023-02-11T05:37:44;10.02;;;3.80;;
7515;SDS011;3799;47.184;8.538;2023-02-11T05:40:11;9.32;;;3.38;;
7515;SDS011;3799;47.184;8.538;2023-02-11T05:42:39;6.00;;;3.22;;
7515;SDS011;3799;47.184;8.538;2023-02-11T05:45:06;5.15;;;2.20;;
7515;SDS011;3799;47.184;8.538;2023-02-11T05:47:33;6.75;;;2.72;;
7515;SDS011;3799;47.184;8.538;2023-02-11T05:50:01;7.40;;;2.85;;
7515;SDS011;3799;47.184;8.538;2023-02-11T05:52:28;6.05;;;2.17;;
7515;SDS011;3799;47.184;8.538;2023-02-11T05:54:55;8.75;;;2.80;;
7515;SDS011;3799;47.184;8.538;2023-02-11T05:57:22;7.97;;;2.80;;
7515;SDS011;3799;47.184;8.538;2023-02-11T05:59:49;6.22;;;2.67;;
7515;SDS011;3799;47.184;8.538;2023-02-11T06:02:16;8.23;;;2.25;;
7515;SDS011;3799;47.184;8.538;2023-02-11T06:04:44;5.28;;;2.60;;
7515;SDS011;3799;47.184;8.538;2023-02-11T06:07:11;6.88;;;2.42;;
7515;SDS011;3799;47.184;8.538;2023-02-11T06:09:38;5.78;;;2.55;;
7515;SDS011;3799;47.184;8.538;2023-02-11T06:12:05;6.35;;;2.47;;
7515;SDS011;3799;47.184;8.538;2023-02-11T06:14:33;4.78;;;2.38;;
7515;SDS011;3799;47.184;8.538;2023-02-11T06:17:02;5.05;;;2.08;;
7515;SDS011;3799;47.184;8.538;2023-02-11T06:19:29;6.20;;;2.20;;
7515;SDS011;3799;47.184;8.538;2023-02-11T06:22:05;5.35;;;2.53;;
7515;SDS011;3799;47.184;8.538;2023-02-11T06:24:32;7.80;;;2.65;;
7515;SDS011;3799;47.184;8.538;2023-02-11T06:27:19;7.15;;;2.55;;
7515;SDS011;3799;47.184;8.538;2023-02-11T06:29:47;6.13;;;2.95;;
7515;SDS011;3799;47.184;8.538;2023-02-11T06:32:14;6.13;;;2.45;;
7515;SDS011;3799;47.184;8.538;2023-02-11T06:35:01;4.72;;;2.15;;
7515;SDS011;3799;47.184;8.538;2023-02-11T06:37:29;5.13;;;1.88;;
7515;SDS011;3799;47.184;8.538;2023-02-11T06:39:56;6.65;;;2.55;;
7515;SDS011;3799;47.184;8.538;2023-02-11T06:42:25;6.10;;;2.45;;
7515;SDS011;3799;47.184;8.538;2023-02-11T06:44:52;4.95;;;2.03;;
7515;SDS011;3799;47.184;8.538;2023-02-11T06:47:19;6.38;;;2.58;;
7515;SDS011;3799;47.184;8.538;2023-02-11T06:49:47;5.85;;;2.35;;
7515;SDS011;3799;47.184;8.538;2023-02-11T06:52:14;5.93;;;2.10;;
7515;SDS011;3799;47.184;8.538;2023-02-11T06:54:43;6.50;;;2.38;;
7515;SDS011;3799;47.184;8.538;2023-02-11T06:57:13;5.32;;;2.05;;
7515;SDS011;3799;47.184;8.538;2023-02-11T06:59:40;6.40;;;2.72;;
7515;SDS011;3799;47.184;8.538;2023-02-11T07:02:08;6.95;;;2.55;;
7515;SDS011;3799;47.184;8.538;2023-02-11T07:04:36;5.80;;;2.92;;
7515;SDS011;3799;47.184;8.538;2023-02-11T07:07:04;5.82;;;2.85;;
7515;SDS011;3799;47.184;8.538;2023-02-11T07:09:32;10.63;;;2.97;;
7515;SDS011;3799;47.184;8.538;2023-02-11T07:11:59;9.60;;;4.30;;
7515;SDS011;3799;47.184;8.538;2023-02-11T07:14:26;8.43;;;2.97;;
7515;SDS011;3799;47.184;8.538;2023-02-11T07:16:54;7.60;;;3.00;;
7515;SDS011;3799;47.184;8.538;2023-02-11T07:19:21;8.25;;;3.92;;
7515;SDS011;3799;47.184;8.538;2023-02-11T07:21:48;13.25;;;3.72;;
7515;SDS011;3799;47.184;8.538;2023-02-11T07:24:15;10.32;;;5.03;;
7515;SDS011;3799;47.184;8.538;2023-02-11T07:26:42;12.52;;;4.80;;
7515;SDS011;3799;47.184;8.538;2023-02-11T07:29:19;12.15;;;5.88;;
7515;SDS011;3799;47.184;8.538;2023-02-11T07:31:49;15.13;;;6.50;;
7515;SDS011;3799;47.184;8.538;2023-02-11T07:34:20;12.57;;;6.03;;
7515;SDS011;3799;47.184;8.538;2023-02-11T07:36:48;14.95;;;7.00;;
7515;SDS011;3799;47.184;8.538;2023-02-11T07:39:15;13.98;;;5.88;;
7515;SDS011;3799;47.184;8.538;2023-02-11T07:41:43;16.15;;;6.32;;
7515;SDS011;3799;47.184;8.538;2023-02-11T07:44:13;11.57;;;5.10;;
7515;SDS011;3799;47.184;8.538;2023-02-11T07:46:41;11.68;;;4.82;;
7515;SDS011;3799;47.184;8.538;2023-02-11T07:49:10;13.60;;;5.22;;
7515;SDS011;3799;47.184;8.538;2023-02-11T07:51:38;13.85;;;6.47;;
7515;SDS011;3799;47.184;8.538;2023-02-11T07:54:05;13.77;;;6.05;;
7515;SDS011;3799;47.184;8.538;2023-02-11T07:56:33;14.10;;;5.80;;
7515;SDS011;3799;47.184;8.538;2023-02-11T07:59:02;15.55;;;6.57;;
7515;SDS011;3799;47.184;8.538;2023-02-11T08:01:30;14.70;;;6.35;;
7515;SDS011;3799;47.184;8.538;2023-02-11T08:03:58;14.50;;;6.50;;
7515;SDS011;3799;47.184;8.538;2023-02-11T08:06:28;14.57;;;6.78;;
7515;SDS011;3799;47.184;8.538;2023-02-11T08:08:56;12.40;;;6.00;;
7515;SDS011;3799;47.184;8.538;2023-02-11T08:11:24;12.30;;;7.20;;
7515;SDS011;3799;47.184;8.538;2023-02-11T08:13:53;19.95;;;7.65;;
7515;SDS011;3799;47.184;8.538;2023-02-11T08:18:57;17.25;;;7.85;;
7515;SDS011;3799;47.184;8.538;2023-02-11T08:21:28;19.15;;;8.23;;
7515;SDS011;3799;47.184;8.538;2023-02-11T08:23:55;17.38;;;8.07;;
7515;SDS011;3799;47.184;8.538;2023-02-11T08:26:24;20.70;;;9.18;;
7515;SDS011;3799;47.184;8.538;2023-02-11T08:28:53;19.00;;;9.05;;
7515;SDS011;3799;47.184;8.538;2023-02-11T08:31:23;22.20;;;9.13;;
7515;SDS011;3799;47.184;8.538;2023-02-11T08:33:53;19.45;;;8.57;;
7515;SDS011;3799;47.184;8.538;2023-02-11T08:36:24;22.75;;;10.00;;
7515;SDS011;3799;47.184;8.538;2023-02-11T08:39:03;19.75;;;10.13;;
7515;SDS011;3799;47.184;8.538;2023-02-11T08:41:49;15.35;;;7.05;;
7515;SDS011;3799;47.184;8.538;2023-02-11T08:44:19;17.83;;;7.47;;
7515;SDS011;3799;47.184;8.538;2023-02-11T08:46:47;19.77;;;8.57;;
7515;SDS011;3799;47.184;8.538;2023-02-11T08:49:19;22.05;;;8.60;;
7515;SDS011;3799;47.184;8.538;2023-02-11T08:51:49;18.30;;;8.82;;
7515;SDS011;3799;47.184;8.538;2023-02-11T08:54:17;19.27;;;9.02;;
7515;SDS011;3799;47.184;8.538;2023-02-11T08:56:44;18.92;;;8.60;;
7515;SDS011;3799;47.184;8.538;2023-02-11T08:59:16;18.02;;;8.82;;
7515;SDS011;3799;47.184;8.538;2023-02-11T09:01:46;15.40;;;9.00;;
7515;SDS011;3799;47.184;8.538;2023-02-11T09:04:14;19.33;;;9.95;;
7515;SDS011;3799;47.184;8.538;2023-02-11T09:06:44;18.85;;;8.30;;
7515;SDS011;3799;47.184;8.538;2023-02-11T09:09:17;15.25;;;9.35;;
7515;SDS011;3799;47.184;8.538;2023-02-11T09:11:44;17.65;;;9.02;;
7515;SDS011;3799;47.184;8.538;2023-02-11T09:14:17;15.75;;;8.52;;
7515;SDS011;3799;47.184;8.538;2023-02-11T09:16:48;20.77;;;9.40;;
7515;SDS011;3799;47.184;8.538;2023-02-11T09:19:19;17.13;;;7.78;;
7515;SDS011;3799;47.184;8.538;2023-02-11T09:21:47;17.88;;;8.75;;
7515;SDS011;3799;47.184;8.538;2023-02-11T09:24:15;19.23;;;9.00;;
7515;SDS011;3799;47.184;8.538;2023-02-11T09:26:42;16.17;;;8.75;;
7515;SDS011;3799;47.184;8.538;2023-02-11T09:29:09;22.35;;;9.20;;
7515;SDS011;3799;47.184;8.538;2023-02-11T09:31:42;20.15;;;8.77;;
7515;SDS011;3799;47.184;8.538;2023-02-11T09:34:12;18.08;;;8.70;;
7515;SDS011;3799;47.184;8.538;2023-02-11T09:36:41;17.63;;;8.27;;
7515;SDS011;3799;47.184;8.538;2023-02-11T09:39:10;16.75;;;8.43;;
7515;SDS011;3799;47.184;8.538;2023-02-11T09:44:29;15.80;;;7.57;;
7515;SDS011;3799;47.184;8.538;2023-02-11T09:47:01;13.45;;;7.30;;
7515;SDS011;3799;47.184;8.538;2023-02-11T09:52:07;15.40;;;6.97;;
7515;SDS011;3799;47.184;8.538;2023-02-11T09:54:54;12.88;;;5.88;;
7515;SDS011;3799;47.184;8.538;2023-02-11T09:57:33;10.48;;;5.53;;
7515;SDS011;3799;47.184;8.538;2023-02-11T10:00:10;15.68;;;6.25;;
7515;SDS011;3799;47.184;8.538;2023-02-11T10:03:13;11.73;;;5.22;;
7515;SDS011;3799;47.184;8.538;2023-02-11T10:13:41;11.95;;;5.20;;
7515;SDS011;3799;47.184;8.538;2023-02-11T10:19:04;9.45;;;4.85;;
7515;SDS011;3799;47.184;8.538;2023-02-11T10:21:44;7.82;;;4.30;;
7515;SDS011;3799;47.184;8.538;2023-02-11T10:24:17;10.73;;;4.68;;
7515;SDS011;3799;47.184;8.538;2023-02-11T10:26:44;9.40;;;5.10;;
7515;SDS011;3799;47.184;8.538;2023-02-11T10:29:33;12.82;;;6.00;;
7515;SDS011;3799;47.184;8.538;2023-02-11T10:32:14;8.32;;;3.85;;
7515;SDS011;3799;47.184;8.538;2023-02-11T10:34:59;8.68;;;4.97;;
7515;SDS011;3799;47.184;8.538;2023-02-11T10:37:30;10.38;;;5.13;;
7515;SDS011;3799;47.184;8.538;2023-02-11T10:40:00;9.43;;;4.13;;
7515;SDS011;3799;47.184;8.538;2023-02-11T10:42:28;8.63;;;4.38;;
7515;SDS011;3799;47.184;8.538;2023-02-11T10:44:57;8.90;;;4.32;;
7515;SDS011;3799;47.184;8.538;2023-02-11T10:47:29;10.25;;;4.30;;
7515;SDS011;3799;47.184;8.538;2023-02-11T10:50:22;9.13;;;4.30;;
7515;SDS011;3799;47.184;8.538;2023-02-11T10:52:51;9.25;;;4.32;;
7515;SDS011;3799;47.184;8.538;2023-02-11T10:55:23;9.27;;;4.47;;
7515;SDS011;3799;47.184;8.538;2023-02-11T10:57:59;9.50;;;4.55;;
7515;SDS011;3799;47.184;8.538;2023-02-11T11:03:24;8.63;;;4.68;;
7515;SDS011;3799;47.184;8.538;2023-02-11T11:05:57;9.50;;;5.03;;
7515;SDS011;3799;47.184;8.538;2023-02-11T11:08:39;9.80;;;4.75;;
7515;SDS011;3799;47.184;8.538;2023-02-11T11:11:14;9.35;;;4.95;;
7515;SDS011;3799;47.184;8.538;2023-02-11T11:16:28;8.05;;;4.47;;
7515;SDS011;3799;47.184;8.538;2023-02-11T11:26:56;10.98;;;5.25;;
7515;SDS011;3799;47.184;8.538;2023-02-11T11:31:59;12.57;;;6.82;;
7515;SDS011;3799;47.184;8.538;2023-02-11T11:34:30;15.27;;;7.28;;
7515;SDS011;3799;47.184;8.538;2023-02-11T11:37:51;14.60;;;7.90;;
7515;SDS011;3799;47.184;8.538;2023-02-11T11:47:50;13.55;;;7.45;;
7515;SDS011;3799;47.184;8.538;2023-02-11T11:50:25;13.20;;;8.07;;
7515;SDS011;3799;47.184;8.538;2023-02-11T11:55:44;17.02;;;7.85;;
7515;SDS011;3799;47.184;8.538;2023-02-11T11:58:18;16.60;;;7.32;;
7515;SDS011;3799;47.184;8.538;2023-02-11T12:00:51;14.15;;;8.00;;
7515;SDS011;3799;47.184;8.538;2023-02-11T12:06:50;12.95;;;7.25;;
7515;SDS011;3799;47.184;8.538;2023-02-11T12:20:58;12.27;;;7.40;;
7515;SDS011;3799;47.184;8.538;2023-02-11T12:26:44;13.20;;;6.43;;
7515;SDS011;3799;47.184;8.538;2023-02-11T12:32:38;13.80;;;6.15;;
7515;SDS011;3799;47.184;8.538;2023-02-11T12:35:24;13.55;;;7.32;;
7515;SDS011;3799;47.184;8.538;2023-02-11T12:38:31;12.23;;;6.60;;
7515;SDS011;3799;47.184;8.538;2023-02-11T12:43:43;11.50;;;6.35;;
7515;SDS011;3799;47.184;8.538;2023-02-11T12:56:57;12.52;;;6.22;;
7515;SDS011;3799;47.184;8.538;2023-02-11T12:59:50;8.77;;;5.20;;
7515;SDS011;3799;47.184;8.538;2023-02-11T13:05:31;11.70;;;6.65;;
7515;SDS011;3799;47.184;8.538;2023-02-11T13:08:10;12.55;;;6.22;;
7515;SDS011;3799;47.184;8.538;2023-02-11T13:10:42;15.05;;;7.65;;
7515;SDS011;3799;47.184;8.538;2023-02-11T13:13:21;12.43;;;7.03;;
7515;SDS011;3799;47.184;8.538;2023-02-11T13:16:05;13.10;;;6.78;;
7515;SDS011;3799;47.184;8.538;2023-02-11T13:21:36;15.43;;;7.53;;
7515;SDS011;3799;47.184;8.538;2023-02-11T13:24:58;15.05;;;7.68;;
7515;SDS011;3799;47.184;8.538;2023-02-11T13:27:45;11.45;;;6.18;;
7515;SDS011;3799;47.184;8.538;2023-02-11T13:35:33;14.57;;;7.32;;
7515;SDS011;3799;47.184;8.538;2023-02-11T13:38:03;14.02;;;7.18;;
7515;SDS011;3799;47.184;8.538;2023-02-11T13:43:58;12.48;;;6.05;;
7515;SDS011;3799;47.184;8.538;2023-02-11T13:47:13;15.23;;;7.60;;
7515;SDS011;3799;47.184;8.538;2023-02-11T13:49:36;12.82;;;7.38;;
7515;SDS011;3799;47.184;8.538;2023-02-11T13:52:25;14.10;;;6.95;;
7515;SDS011;3799;47.184;8.538;2023-02-11T13:54:57;13.98;;;7.18;;
7515;SDS011;3799;47.184;8.538;2023-02-11T13:57:34;13.98;;;7.72;;
7515;SDS011;3799;47.184;8.538;2023-02-11T14:00:41;16.10;;;8.63;;
7515;SDS011;3799;47.184;8.538;2023-02-11T14:06:19;16.70;;;8.88;;
7515;SDS011;3799;47.184;8.538;2023-02-11T14:11:46;17.92;;;9.45;;
7515;SDS011;3799;47.184;8.538;2023-02-11T14:14:17;20.90;;;9.82;;
7515;SDS011;3799;47.184;8.538;2023-02-11T14:19:46;15.95;;;9.75;;
7515;SDS011;3799;47.184;8.538;2023-02-11T14:24:56;19.23;;;11.10;;
7515;SDS011;3799;47.184;8.538;2023-02-11T14:27:29;18.23;;;9.52;;
7515;SDS011;3799;47.184;8.538;2023-02-11T14:32:52;18.75;;;10.23;;
7515;SDS011;3799;47.184;8.538;2023-02-11T14:35:52;19.70;;;10.40;;
7515;SDS011;3799;47.184;8.538;2023-02-11T14:41:26;16.40;;;9.15;;
7515;SDS011;3799;47.184;8.538;2023-02-11T14:43:57;17.35;;;9.60;;
7515;SDS011;3799;47.184;8.538;2023-02-11T14:46:27;18.77;;;9.27;;
7515;SDS011;3799;47.184;8.538;2023-02-11T14:48:59;18.30;;;9.38;;
7515;SDS011;3799;47.184;8.538;2023-02-11T14:51:35;18.40;;;9.90;;
7515;SDS011;3799;47.184;8.538;2023-02-11T14:54:10;17.52;;;10.00;;
7515;SDS011;3799;47.184;8.538;2023-02-11T14:56:42;18.85;;;9.88;;
7515;SDS011;3799;47.184;8.538;2023-02-11T14:59:16;16.50;;;9.48;;
7515;SDS011;3799;47.184;8.538;2023-02-11T15:01:48;17.27;;;9.57;;
7515;SDS011;3799;47.184;8.538;2023-02-11T15:04:27;14.15;;;8.65;;
7515;SDS011;3799;47.184;8.538;2023-02-11T15:07:02;15.35;;;8.80;;
7515;SDS011;3799;47.184;8.538;2023-02-11T15:09:33;15.75;;;9.20;;
7515;SDS011;3799;47.184;8.538;2023-02-11T15:12:15;14.68;;;7.95;;
7515;SDS011;3799;47.184;8.538;2023-02-11T15:14:52;14.88;;;8.40;;
7515;SDS011;3799;47.184;8.538;2023-02-11T15:17:25;15.23;;;8.52;;
7515;SDS011;3799;47.184;8.538;2023-02-11T15:19:56;14.93;;;8.40;;
7515;SDS011;3799;47.184;8.538;2023-02-11T15:22:33;14.63;;;8.38;;
7515;SDS011;3799;47.184;8.538;2023-02-11T15:27:41;15.65;;;8.63;;
7515;SDS011;3799;47.184;8.538;2023-02-11T15:30:22;15.35;;;8.90;;
7515;SDS011;3799;47.184;8.538;2023-02-11T15:35:30;15.60;;;8.13;;
7515;SDS011;3799;47.184;8.538;2023-02-11T15:38:00;12.75;;;8.25;;
7515;SDS011;3799;47.184;8.538;2023-02-11T15:40:28;14.20;;;8.52;;
7515;SDS011;3799;47.184;8.538;2023-02-11T15:43:09;14.50;;;8.50;;
7515;SDS011;3799;47.184;8.538;2023-02-11T15:45:37;14.93;;;8.88;;
7515;SDS011;3799;47.184;8.538;2023-02-11T15:48:23;14.98;;;8.75;;
7515;SDS011;3799;47.184;8.538;2023-02-11T15:51:01;14.90;;;9.25;;
7515;SDS011;3799;47.184;8.538;2023-02-11T15:53:37;14.02;;;8.18;;
7515;SDS011;3799;47.184;8.538;2023-02-11T15:56:10;15.43;;;8.98;;
7515;SDS011;3799;47.184;8.538;2023-02-11T15:58:44;14.88;;;9.55;;
7515;SDS011;3799;47.184;8.538;2023-02-11T16:01:13;14.88;;;9.70;;
7515;SDS011;3799;47.184;8.538;2023-02-11T16:03:41;18.30;;;10.73;;
7515;SDS011;3799;47.184;8.538;2023-02-11T16:08:58;16.13;;;10.00;;
7515;SDS011;3799;47.184;8.538;2023-02-11T16:11:52;14.80;;;8.77;;
7515;SDS011;3799;47.184;8.538;2023-02-11T16:16:57;14.70;;;9.45;;
7515;SDS011;3799;47.184;8.538;2023-02-11T16:19:35;12.57;;;8.40;;
7515;SDS011;3799;47.184;8.538;2023-02-11T16:22:17;15.35;;;8.52;;
7515;SDS011;3799;47.184;8.538;2023-02-11T16:24:53;13.73;;;7.97;;
7515;SDS011;3799;47.184;8.538;2023-02-11T16:27:27;11.40;;;7.07;;
7515;SDS011;3799;47.184;8.538;2023-02-11T16:29:59;13.63;;;8.07;;
7515;SDS011;3799;47.184;8.538;2023-02-11T16:32:30;14.63;;;8.57;;
7515;SDS011;3799;47.184;8.538;2023-02-11T16:34:58;18.45;;;8.82;;
7515;SDS011;3799;47.184;8.538;2023-02-11T16:37:26;15.27;;;8.43;;
7515;SDS011;3799;47.184;8.538;2023-02-11T16:39:55;13.07;;;7.82;;
7515;SDS011;3799;47.184;8.538;2023-02-11T16:42:32;19.33;;;8.77;;
7515;SDS011;3799;47.184;8.538;2023-02-11T16:44:59;15.18;;;8.30;;
7515;SDS011;3799;47.184;8.538;2023-02-11T16:47:26;16.10;;;9.13;;
7515;SDS011;3799;47.184;8.538;2023-02-11T16:49:54;15.00;;;8.43;;
7515;SDS011;3799;47.184;8.538;2023-02-11T16:52:23;13.15;;;7.80;;
7515;SDS011;3799;47.184;8.538;2023-02-11T16:54:50;12.32;;;7.00;;
7515;SDS011;3799;47.184;8.538;2023-02-11T16:57:24;15.15;;;8.45;;
7515;SDS011;3799;47.184;8.538;2023-02-11T16:59:55;15.10;;;7.20;;
7515;SDS011;3799;47.184;8.538;2023-02-11T17:02:27;14.43;;;8.85;;
7515;SDS011;3799;47.184;8.538;2023-02-11T17:04:57;14.48;;;8.32;;
7515;SDS011;3799;47.184;8.538;2023-02-11T17:07:27;15.82;;;8.20;;
7515;SDS011;3799;47.184;8.538;2023-02-11T17:09:55;19.60;;;9.60;;
7515;SDS011;3799;47.184;8.538;2023-02-11T17:12:22;17.13;;;8.27;;
7515;SDS011;3799;47.184;8.538;2023-02-11T17:14:51;16.45;;;8.48;;
7515;SDS011;3799;47.184;8.538;2023-02-11T17:17:18;14.75;;;8.80;;
7515;SDS011;3799;47.184;8.538;2023-02-11T17:19:47;15.10;;;7.85;;
7515;SDS011;3799;47.184;8.538;2023-02-11T17:22:14;17.15;;;7.47;;
7515;SDS011;3799;47.184;8.538;2023-02-11T17:24:44;17.38;;;7.72;;
7515;SDS011;3799;47.184;8.538;2023-02-11T17:27:11;15.05;;;7.13;;
7515;SDS011;3799;47.184;8.538;2023-02-11T17:29:38;12.90;;;7.32;;
7515;SDS011;3799;47.184;8.538;2023-02-11T17:32:05;14.00;;;7.38;;
7515;SDS011;3799;47.184;8.538;2023-02-11T17:34:33;15.35;;;7.25;;
7515;SDS011;3799;47.184;8.538;2023-02-11T17:37:00;14.60;;;6.30;;
7515;SDS011;3799;47.184;8.538;2023-02-11T17:39:35;18.17;;;7.43;;
7515;SDS011;3799;47.184;8.538;2023-02-11T17:42:03;14.93;;;7.07;;
7515;SDS011;3799;47.184;8.538;2023-02-11T17:44:32;12.30;;;6.45;;
7515;SDS011;3799;47.184;8.538;2023-02-11T17:46:59;13.40;;;6.40;;
7515;SDS011;3799;47.184;8.538;2023-02-11T17:49:26;13.65;;;6.60;;
7515;SDS011;3799;47.184;8.538;2023-02-11T17:51:53;12.40;;;6.30;;
7515;SDS011;3799;47.184;8.538;2023-02-11T17:54:21;12.48;;;6.45;;
7515;SDS011;3799;47.184;8.538;2023-02-11T17:56:49;10.15;;;5.40;;
7515;SDS011;3799;47.184;8.538;2023-02-11T17:59:23;8.85;;;5.03;;
7515;SDS011;3799;47.184;8.538;2023-02-11T18:01:57;11.05;;;5.22;;
7515;SDS011;3799;47.184;8.538;2023-02-11T18:04:24;13.10;;;5.65;;
7515;SDS011;3799;47.184;8.538;2023-02-11T18:06:51;12.80;;;5.90;;
7515;SDS011;3799;47.184;8.538;2023-02-11T18:09:19;10.80;;;5.18;;
7515;SDS011;3799;47.184;8.538;2023-02-11T18:11:46;8.75;;;4.88;;
7515;SDS011;3799;47.184;8.538;2023-02-11T18:14:14;11.77;;;5.38;;
7515;SDS011;3799;47.184;8.538;2023-02-11T18:16:41;11.65;;;4.82;;
7515;SDS011;3799;47.184;8.538;2023-02-11T18:19:10;13.18;;;5.25;;
7515;SDS011;3799;47.184;8.538;2023-02-11T18:21:38;9.10;;;4.78;;
7515;SDS011;3799;47.184;8.538;2023-02-11T18:24:05;9.13;;;4.80;;
7515;SDS011;3799;47.184;8.538;2023-02-11T18:26:32;8.35;;;3.85;;